Woolly Bugger, West Virginia
Current Conditions -  °F | °C
As of 7:53 PM on Monday 20 Oct 2014 (Local Time) from KMRB Reporting Station
Light Rain Light Rain  
Wind Chill: 56°   Ceiling: 7000
Heat Index: 56°   Visibility: 10mi
Dew Point: 46°   Wind: 0mph
Humidity: 69%   Direction: NA
Pressure: 29.95"   Gusts: NA
Location:  39.3053°N, 77.8555°W
Report Text: KMRB 202353Z 00000KT 10SM -RA OVC070 13/08 A2995 RMK AO2 RAB29 SLP144 P0000 60000 T01330078 10172 20133 53005
Loading
Personal Weather Stations






























Interactive Weather Map
Tropical Storm Tracking
New forecast layout! Learn more

10-Day Weather Forecast

Advertisements
Track Severe Weather on mobile